sensor_id;sensor_type;location;lat;lon;timestamp;P1;durP1;ratioP1;P2;durP2;ratioP2
82930;SDS011;72705;53.346;10.248;2024-02-15T00:01:41;22.77;;;10.63;;
82930;SDS011;72705;53.346;10.248;2024-02-15T00:04:07;21.92;;;10.38;;
82930;SDS011;72705;53.346;10.248;2024-02-15T00:06:32;20.90;;;10.63;;
82930;SDS011;72705;53.346;10.248;2024-02-15T00:09:01;26.87;;;11.60;;
82930;SDS011;72705;53.346;10.248;2024-02-15T00:11:27;23.40;;;10.75;;
82930;SDS011;72705;53.346;10.248;2024-02-15T00:13:53;25.33;;;9.95;;
82930;SDS011;72705;53.346;10.248;2024-02-15T00:16:20;21.42;;;10.00;;
82930;SDS011;72705;53.346;10.248;2024-02-15T00:18:46;24.67;;;10.55;;
82930;SDS011;72705;53.346;10.248;2024-02-15T00:21:19;24.90;;;11.53;;
82930;SDS011;72705;53.346;10.248;2024-02-15T00:23:44;23.48;;;10.13;;
82930;SDS011;72705;53.346;10.248;2024-02-15T00:26:09;25.63;;;11.70;;
82930;SDS011;72705;53.346;10.248;2024-02-15T00:28:36;25.73;;;10.65;;
82930;SDS011;72705;53.346;10.248;2024-02-15T00:31:03;22.20;;;10.65;;
82930;SDS011;72705;53.346;10.248;2024-02-15T00:33:29;25.45;;;10.40;;
82930;SDS011;72705;53.346;10.248;2024-02-15T00:35:54;27.27;;;11.40;;
82930;SDS011;72705;53.346;10.248;2024-02-15T00:38:19;28.60;;;11.70;;
82930;SDS011;72705;53.346;10.248;2024-02-15T00:40:48;23.88;;;9.88;;
82930;SDS011;72705;53.346;10.248;2024-02-15T00:43:13;25.98;;;11.48;;
82930;SDS011;72705;53.346;10.248;2024-02-15T00:45:39;33.57;;;12.30;;
82930;SDS011;72705;53.346;10.248;2024-02-15T00:48:05;26.50;;;10.27;;
82930;SDS011;72705;53.346;10.248;2024-02-15T00:50:31;31.20;;;11.25;;
82930;SDS011;72705;53.346;10.248;2024-02-15T00:52:56;27.97;;;10.87;;
82930;SDS011;72705;53.346;10.248;2024-02-15T00:55:21;27.37;;;11.27;;
82930;SDS011;72705;53.346;10.248;2024-02-15T00:57:47;26.60;;;11.10;;
82930;SDS011;72705;53.346;10.248;2024-02-15T01:00:12;26.20;;;11.87;;
82930;SDS011;72705;53.346;10.248;2024-02-15T01:02:38;23.88;;;10.45;;
82930;SDS011;72705;53.346;10.248;2024-02-15T01:05:03;32.33;;;12.83;;
82930;SDS011;72705;53.346;10.248;2024-02-15T01:07:29;28.05;;;11.25;;
82930;SDS011;72705;53.346;10.248;2024-02-15T01:10:07;26.07;;;11.40;;
82930;SDS011;72705;53.346;10.248;2024-02-15T01:12:32;29.85;;;12.75;;
82930;SDS011;72705;53.346;10.248;2024-02-15T01:14:58;30.00;;;12.60;;
82930;SDS011;72705;53.346;10.248;2024-02-15T01:17:23;29.48;;;12.50;;
82930;SDS011;72705;53.346;10.248;2024-02-15T01:19:51;24.65;;;11.45;;
82930;SDS011;72705;53.346;10.248;2024-02-15T01:22:18;28.35;;;11.52;;
82930;SDS011;72705;53.346;10.248;2024-02-15T01:24:43;25.38;;;11.40;;
82930;SDS011;72705;53.346;10.248;2024-02-15T01:27:09;25.60;;;10.83;;
82930;SDS011;72705;53.346;10.248;2024-02-15T01:29:35;29.50;;;13.90;;
82930;SDS011;72705;53.346;10.248;2024-02-15T01:32:06;30.95;;;12.15;;
82930;SDS011;72705;53.346;10.248;2024-02-15T01:34:32;29.00;;;12.60;;
82930;SDS011;72705;53.346;10.248;2024-02-15T01:36:57;30.00;;;12.50;;
82930;SDS011;72705;53.346;10.248;2024-02-15T01:39:29;26.77;;;10.50;;
82930;SDS011;72705;53.346;10.248;2024-02-15T01:41:54;26.15;;;12.32;;
82930;SDS011;72705;53.346;10.248;2024-02-15T01:44:21;29.48;;;12.40;;
82930;SDS011;72705;53.346;10.248;2024-02-15T01:46:49;26.42;;;10.93;;
82930;SDS011;72705;53.346;10.248;2024-02-15T01:49:17;24.10;;;10.52;;
82930;SDS011;72705;53.346;10.248;2024-02-15T01:51:49;24.88;;;10.60;;
82930;SDS011;72705;53.346;10.248;2024-02-15T01:54:17;25.30;;;10.32;;
82930;SDS011;72705;53.346;10.248;2024-02-15T01:56:45;24.98;;;10.23;;
82930;SDS011;72705;53.346;10.248;2024-02-15T01:59:12;26.40;;;11.18;;
82930;SDS011;72705;53.346;10.248;2024-02-15T02:01:40;30.75;;;11.98;;
82930;SDS011;72705;53.346;10.248;2024-02-15T02:04:06;25.92;;;11.60;;
82930;SDS011;72705;53.346;10.248;2024-02-15T02:09:01;29.25;;;12.25;;
82930;SDS011;72705;53.346;10.248;2024-02-15T02:13:58;30.35;;;11.63;;
82930;SDS011;72705;53.346;10.248;2024-02-15T02:16:29;32.92;;;12.77;;
82930;SDS011;72705;53.346;10.248;2024-02-15T02:19:00;30.40;;;12.60;;
82930;SDS011;72705;53.346;10.248;2024-02-15T02:21:26;33.90;;;12.88;;
82930;SDS011;72705;53.346;10.248;2024-02-15T02:23:52;30.38;;;12.75;;
82930;SDS011;72705;53.346;10.248;2024-02-15T02:26:22;34.10;;;12.90;;
82930;SDS011;72705;53.346;10.248;2024-02-15T02:28:48;33.53;;;13.93;;
82930;SDS011;72705;53.346;10.248;2024-02-15T02:31:14;34.13;;;14.15;;
82930;SDS011;72705;53.346;10.248;2024-02-15T02:33:40;29.80;;;12.88;;
82930;SDS011;72705;53.346;10.248;2024-02-15T02:36:06;27.45;;;11.57;;
82930;SDS011;72705;53.346;10.248;2024-02-15T02:38:34;31.70;;;12.40;;
82930;SDS011;72705;53.346;10.248;2024-02-15T02:41:02;32.13;;;12.15;;
82930;SDS011;72705;53.346;10.248;2024-02-15T02:43:27;31.35;;;12.90;;
82930;SDS011;72705;53.346;10.248;2024-02-15T02:45:56;30.87;;;12.50;;
82930;SDS011;72705;53.346;10.248;2024-02-15T02:50:50;29.08;;;12.10;;
82930;SDS011;72705;53.346;10.248;2024-02-15T02:53:15;27.75;;;12.10;;
82930;SDS011;72705;53.346;10.248;2024-02-15T02:55:41;30.00;;;12.85;;
82930;SDS011;72705;53.346;10.248;2024-02-15T02:58:07;27.00;;;11.68;;
82930;SDS011;72705;53.346;10.248;2024-02-15T03:00:33;26.55;;;10.55;;
82930;SDS011;72705;53.346;10.248;2024-02-15T03:03:00;22.52;;;10.63;;
82930;SDS011;72705;53.346;10.248;2024-02-15T03:05:26;23.08;;;10.13;;
82930;SDS011;72705;53.346;10.248;2024-02-15T03:07:51;26.15;;;10.35;;
82930;SDS011;72705;53.346;10.248;2024-02-15T03:10:17;22.27;;;10.02;;
82930;SDS011;72705;53.346;10.248;2024-02-15T03:12:43;24.98;;;10.43;;
82930;SDS011;72705;53.346;10.248;2024-02-15T03:15:12;21.27;;;9.68;;
82930;SDS011;72705;53.346;10.248;2024-02-15T03:17:38;20.38;;;9.13;;
82930;SDS011;72705;53.346;10.248;2024-02-15T03:20:08;23.17;;;9.43;;
82930;SDS011;72705;53.346;10.248;2024-02-15T03:22:45;22.48;;;9.48;;
82930;SDS011;72705;53.346;10.248;2024-02-15T03:25:15;23.45;;;9.25;;
82930;SDS011;72705;53.346;10.248;2024-02-15T03:27:40;21.77;;;9.90;;
82930;SDS011;72705;53.346;10.248;2024-02-15T03:30:06;19.83;;;8.87;;
82930;SDS011;72705;53.346;10.248;2024-02-15T03:32:32;22.92;;;9.88;;
82930;SDS011;72705;53.346;10.248;2024-02-15T03:34:57;22.60;;;8.75;;
82930;SDS011;72705;53.346;10.248;2024-02-15T03:37:26;20.77;;;9.25;;
82930;SDS011;72705;53.346;10.248;2024-02-15T03:39:52;20.75;;;8.45;;
82930;SDS011;72705;53.346;10.248;2024-02-15T03:42:19;21.53;;;9.37;;
82930;SDS011;72705;53.346;10.248;2024-02-15T03:44:45;21.65;;;9.10;;
82930;SDS011;72705;53.346;10.248;2024-02-15T03:47:10;26.02;;;9.88;;
82930;SDS011;72705;53.346;10.248;2024-02-15T03:49:41;20.25;;;8.75;;
82930;SDS011;72705;53.346;10.248;2024-02-15T03:52:07;19.13;;;8.32;;
82930;SDS011;72705;53.346;10.248;2024-02-15T03:54:37;24.92;;;10.35;;
82930;SDS011;72705;53.346;10.248;2024-02-15T03:57:02;23.90;;;9.70;;
82930;SDS011;72705;53.346;10.248;2024-02-15T03:59:29;25.10;;;9.65;;
82930;SDS011;72705;53.346;10.248;2024-02-15T04:01:57;22.77;;;9.85;;
82930;SDS011;72705;53.346;10.248;2024-02-15T04:04:22;26.80;;;10.23;;
82930;SDS011;72705;53.346;10.248;2024-02-15T04:06:48;26.70;;;11.30;;
82930;SDS011;72705;53.346;10.248;2024-02-15T04:09:14;23.42;;;9.27;;
82930;SDS011;72705;53.346;10.248;2024-02-15T04:11:40;23.92;;;11.45;;
82930;SDS011;72705;53.346;10.248;2024-02-15T04:16:36;26.67;;;11.73;;
82930;SDS011;72705;53.346;10.248;2024-02-15T04:19:01;31.00;;;12.15;;
82930;SDS011;72705;53.346;10.248;2024-02-15T04:21:28;27.88;;;12.13;;
82930;SDS011;72705;53.346;10.248;2024-02-15T04:23:53;26.95;;;11.75;;
82930;SDS011;72705;53.346;10.248;2024-02-15T04:26:19;29.85;;;12.07;;
82930;SDS011;72705;53.346;10.248;2024-02-15T04:28:45;29.98;;;12.30;;
82930;SDS011;72705;53.346;10.248;2024-02-15T04:31:13;25.17;;;11.25;;
82930;SDS011;72705;53.346;10.248;2024-02-15T04:33:39;29.27;;;11.93;;
82930;SDS011;72705;53.346;10.248;2024-02-15T04:36:05;32.50;;;11.88;;
82930;SDS011;72705;53.346;10.248;2024-02-15T04:38:31;31.92;;;12.82;;
82930;SDS011;72705;53.346;10.248;2024-02-15T04:41:00;27.40;;;11.88;;
82930;SDS011;72705;53.346;10.248;2024-02-15T04:43:26;29.83;;;11.80;;
82930;SDS011;72705;53.346;10.248;2024-02-15T04:46:01;29.05;;;12.38;;
82930;SDS011;72705;53.346;10.248;2024-02-15T04:48:27;26.58;;;11.68;;
82930;SDS011;72705;53.346;10.248;2024-02-15T04:50:53;26.10;;;10.68;;
82930;SDS011;72705;53.346;10.248;2024-02-15T04:53:19;27.42;;;11.32;;
82930;SDS011;72705;53.346;10.248;2024-02-15T04:55:46;27.48;;;12.25;;
82930;SDS011;72705;53.346;10.248;2024-02-15T04:58:14;29.08;;;11.48;;
82930;SDS011;72705;53.346;10.248;2024-02-15T05:00:40;23.77;;;10.27;;
82930;SDS011;72705;53.346;10.248;2024-02-15T05:03:05;30.37;;;12.57;;
82930;SDS011;72705;53.346;10.248;2024-02-15T05:05:32;26.77;;;11.52;;
82930;SDS011;72705;53.346;10.248;2024-02-15T05:07:58;28.35;;;11.85;;
82930;SDS011;72705;53.346;10.248;2024-02-15T05:10:27;33.50;;;12.80;;
82930;SDS011;72705;53.346;10.248;2024-02-15T05:12:52;27.65;;;11.13;;
82930;SDS011;72705;53.346;10.248;2024-02-15T05:15:18;32.65;;;12.88;;
82930;SDS011;72705;53.346;10.248;2024-02-15T05:17:47;30.50;;;12.63;;
82930;SDS011;72705;53.346;10.248;2024-02-15T05:20:13;30.75;;;12.13;;
82930;SDS011;72705;53.346;10.248;2024-02-15T05:22:40;31.15;;;12.70;;
82930;SDS011;72705;53.346;10.248;2024-02-15T05:25:08;33.45;;;12.10;;
82930;SDS011;72705;53.346;10.248;2024-02-15T05:27:34;33.45;;;13.50;;
82930;SDS011;72705;53.346;10.248;2024-02-15T05:30:08;28.38;;;11.80;;
82930;SDS011;72705;53.346;10.248;2024-02-15T05:32:36;30.30;;;13.05;;
82930;SDS011;72705;53.346;10.248;2024-02-15T05:35:15;30.23;;;12.10;;
82930;SDS011;72705;53.346;10.248;2024-02-15T05:40:14;34.70;;;12.73;;
82930;SDS011;72705;53.346;10.248;2024-02-15T05:42:43;32.53;;;13.18;;
82930;SDS011;72705;53.346;10.248;2024-02-15T05:47:52;29.50;;;12.57;;
82930;SDS011;72705;53.346;10.248;2024-02-15T05:50:21;34.63;;;12.95;;
82930;SDS011;72705;53.346;10.248;2024-02-15T05:52:48;36.55;;;12.20;;
82930;SDS011;72705;53.346;10.248;2024-02-15T05:55:15;33.72;;;12.30;;
82930;SDS011;72705;53.346;10.248;2024-02-15T05:57:42;34.42;;;12.30;;
82930;SDS011;72705;53.346;10.248;2024-02-15T06:00:09;37.22;;;12.90;;
82930;SDS011;72705;53.346;10.248;2024-02-15T06:05:11;32.95;;;12.38;;
82930;SDS011;72705;53.346;10.248;2024-02-15T06:07:55;31.17;;;12.13;;
82930;SDS011;72705;53.346;10.248;2024-02-15T06:10:21;31.45;;;11.98;;
82930;SDS011;72705;53.346;10.248;2024-02-15T06:12:52;31.40;;;11.70;;
82930;SDS011;72705;53.346;10.248;2024-02-15T06:15:17;34.50;;;11.93;;
82930;SDS011;72705;53.346;10.248;2024-02-15T06:17:43;36.22;;;13.65;;
82930;SDS011;72705;53.346;10.248;2024-02-15T06:20:14;33.10;;;11.52;;
82930;SDS011;72705;53.346;10.248;2024-02-15T06:22:40;36.05;;;13.00;;
82930;SDS011;72705;53.346;10.248;2024-02-15T06:25:06;34.17;;;12.65;;
82930;SDS011;72705;53.346;10.248;2024-02-15T06:27:32;33.67;;;13.10;;
82930;SDS011;72705;53.346;10.248;2024-02-15T06:29:58;33.83;;;12.83;;
82930;SDS011;72705;53.346;10.248;2024-02-15T06:32:42;35.60;;;13.63;;
82930;SDS011;72705;53.346;10.248;2024-02-15T06:38:40;35.95;;;12.88;;
82930;SDS011;72705;53.346;10.248;2024-02-15T06:41:31;35.13;;;13.90;;
82930;SDS011;72705;53.346;10.248;2024-02-15T06:43:58;34.63;;;12.53;;
82930;SDS011;72705;53.346;10.248;2024-02-15T06:46:24;34.05;;;14.52;;
82930;SDS011;72705;53.346;10.248;2024-02-15T06:48:56;34.23;;;13.03;;
82930;SDS011;72705;53.346;10.248;2024-02-15T06:51:23;29.70;;;12.13;;
82930;SDS011;72705;53.346;10.248;2024-02-15T06:53:49;37.35;;;12.75;;
82930;SDS011;72705;53.346;10.248;2024-02-15T06:56:16;29.55;;;12.32;;
82930;SDS011;72705;53.346;10.248;2024-02-15T06:58:41;28.95;;;11.70;;
82930;SDS011;72705;53.346;10.248;2024-02-15T07:01:07;35.87;;;12.57;;
82930;SDS011;72705;53.346;10.248;2024-02-15T07:06:28;25.67;;;10.95;;
82930;SDS011;72705;53.346;10.248;2024-02-15T07:08:54;29.38;;;10.75;;
82930;SDS011;72705;53.346;10.248;2024-02-15T07:11:21;25.98;;;9.82;;
82930;SDS011;72705;53.346;10.248;2024-02-15T07:13:47;32.10;;;11.68;;
82930;SDS011;72705;53.346;10.248;2024-02-15T07:16:13;33.88;;;11.70;;
82930;SDS011;72705;53.346;10.248;2024-02-15T07:18:40;36.65;;;12.07;;
82930;SDS011;72705;53.346;10.248;2024-02-15T07:21:05;31.13;;;11.88;;
82930;SDS011;72705;53.346;10.248;2024-02-15T07:23:37;28.40;;;10.95;;
82930;SDS011;72705;53.346;10.248;2024-02-15T07:26:02;32.25;;;11.80;;
82930;SDS011;72705;53.346;10.248;2024-02-15T07:28:29;32.83;;;10.98;;
82930;SDS011;72705;53.346;10.248;2024-02-15T07:30:55;30.23;;;11.10;;
82930;SDS011;72705;53.346;10.248;2024-02-15T07:33:21;32.33;;;11.95;;
82930;SDS011;72705;53.346;10.248;2024-02-15T07:35:48;29.83;;;10.80;;
82930;SDS011;72705;53.346;10.248;2024-02-15T07:38:16;29.00;;;10.82;;
82930;SDS011;72705;53.346;10.248;2024-02-15T07:40:42;26.13;;;10.90;;
82930;SDS011;72705;53.346;10.248;2024-02-15T07:43:08;25.33;;;10.25;;
82930;SDS011;72705;53.346;10.248;2024-02-15T07:45:34;26.25;;;10.30;;
82930;SDS011;72705;53.346;10.248;2024-02-15T07:48:02;28.25;;;10.95;;
82930;SDS011;72705;53.346;10.248;2024-02-15T07:50:29;30.55;;;11.63;;
82930;SDS011;72705;53.346;10.248;2024-02-15T07:52:55;28.48;;;10.65;;
82930;SDS011;72705;53.346;10.248;2024-02-15T07:55:21;29.70;;;12.18;;
82930;SDS011;72705;53.346;10.248;2024-02-15T07:57:46;27.65;;;10.20;;
82930;SDS011;72705;53.346;10.248;2024-02-15T08:00:13;25.77;;;11.18;;
82930;SDS011;72705;53.346;10.248;2024-02-15T08:02:41;22.65;;;9.85;;
82930;SDS011;72705;53.346;10.248;2024-02-15T08:05:09;24.95;;;11.07;;
82930;SDS011;72705;53.346;10.248;2024-02-15T08:07:41;24.70;;;10.50;;
82930;SDS011;72705;53.346;10.248;2024-02-15T08:10:09;25.83;;;10.30;;
82930;SDS011;72705;53.346;10.248;2024-02-15T08:12:38;23.42;;;9.75;;
82930;SDS011;72705;53.346;10.248;2024-02-15T08:15:05;21.60;;;9.85;;
82930;SDS011;72705;53.346;10.248;2024-02-15T08:17:36;19.90;;;10.02;;
82930;SDS011;72705;53.346;10.248;2024-02-15T08:20:02;19.67;;;9.60;;
82930;SDS011;72705;53.346;10.248;2024-02-15T08:22:32;22.23;;;8.57;;
82930;SDS011;72705;53.346;10.248;2024-02-15T08:24:57;21.15;;;9.25;;
82930;SDS011;72705;53.346;10.248;2024-02-15T08:27:23;16.93;;;8.20;;
82930;SDS011;72705;53.346;10.248;2024-02-15T08:29:48;17.50;;;8.30;;
82930;SDS011;72705;53.346;10.248;2024-02-15T08:32:13;15.83;;;7.77;;
82930;SDS011;72705;53.346;10.248;2024-02-15T08:34:39;15.90;;;8.18;;
82930;SDS011;72705;53.346;10.248;2024-02-15T08:37:04;18.02;;;8.00;;
82930;SDS011;72705;53.346;10.248;2024-02-15T08:39:38;17.05;;;7.30;;
82930;SDS011;72705;53.346;10.248;2024-02-15T08:42:03;18.05;;;7.38;;
82930;SDS011;72705;53.346;10.248;2024-02-15T08:44:29;13.32;;;6.07;;
82930;SDS011;72705;53.346;10.248;2024-02-15T08:46:54;15.80;;;6.40;;
82930;SDS011;72705;53.346;10.248;2024-02-15T08:49:21;11.35;;;6.10;;
82930;SDS011;72705;53.346;10.248;2024-02-15T08:51:47;12.57;;;7.07;;
82930;SDS011;72705;53.346;10.248;2024-02-15T08:54:20;11.57;;;5.75;;
82930;SDS011;72705;53.346;10.248;2024-02-15T08:56:46;13.43;;;6.75;;
82930;SDS011;72705;53.346;10.248;2024-02-15T08:59:11;12.27;;;6.43;;
82930;SDS011;72705;53.346;10.248;2024-02-15T09:01:37;14.37;;;6.43;;
82930;SDS011;72705;53.346;10.248;2024-02-15T09:04:14;13.37;;;6.40;;
82930;SDS011;72705;53.346;10.248;2024-02-15T09:06:40;13.82;;;6.53;;
82930;SDS011;72705;53.346;10.248;2024-02-15T09:09:06;13.85;;;7.20;;
82930;SDS011;72705;53.346;10.248;2024-02-15T09:11:31;14.95;;;6.43;;
82930;SDS011;72705;53.346;10.248;2024-02-15T09:13:56;13.15;;;6.75;;
82930;SDS011;72705;53.346;10.248;2024-02-15T09:16:23;13.20;;;7.03;;
82930;SDS011;72705;53.346;10.248;2024-02-15T09:18:48;12.95;;;6.75;;
82930;SDS011;72705;53.346;10.248;2024-02-15T09:21:14;13.33;;;6.63;;
82930;SDS011;72705;53.346;10.248;2024-02-15T09:23:39;14.37;;;7.50;;
82930;SDS011;72705;53.346;10.248;2024-02-15T09:26:04;11.93;;;6.10;;
82930;SDS011;72705;53.346;10.248;2024-02-15T09:28:29;12.03;;;6.87;;
82930;SDS011;72705;53.346;10.248;2024-02-15T09:30:56;16.60;;;7.85;;
82930;SDS011;72705;53.346;10.248;2024-02-15T09:33:24;14.23;;;7.82;;
82930;SDS011;72705;53.346;10.248;2024-02-15T09:35:51;14.32;;;7.28;;
82930;SDS011;72705;53.346;10.248;2024-02-15T09:38:16;12.63;;;6.78;;
82930;SDS011;72705;53.346;10.248;2024-02-15T09:40:42;13.50;;;7.43;;
82930;SDS011;72705;53.346;10.248;2024-02-15T09:43:12;13.43;;;7.85;;
82930;SDS011;72705;53.346;10.248;2024-02-15T09:45:40;17.83;;;8.15;;
82930;SDS011;72705;53.346;10.248;2024-02-15T09:48:05;13.43;;;7.82;;
82930;SDS011;72705;53.346;10.248;2024-02-15T09:50:36;17.63;;;8.45;;
82930;SDS011;72705;53.346;10.248;2024-02-15T09:53:07;17.80;;;8.70;;
82930;SDS011;72705;53.346;10.248;2024-02-15T09:55:34;21.58;;;9.52;;
82930;SDS011;72705;53.346;10.248;2024-02-15T09:58:00;19.90;;;9.68;;
82930;SDS011;72705;53.346;10.248;2024-02-15T10:00:26;20.40;;;10.52;;
82930;SDS011;72705;53.346;10.248;2024-02-15T10:02:51;21.50;;;11.05;;
82930;SDS011;72705;53.346;10.248;2024-02-15T10:05:21;22.63;;;11.30;;
82930;SDS011;72705;53.346;10.248;2024-02-15T10:07:48;22.70;;;10.73;;
82930;SDS011;72705;53.346;10.248;2024-02-15T10:10:24;24.67;;;12.18;;
82930;SDS011;72705;53.346;10.248;2024-02-15T10:12:52;24.70;;;12.05;;
82930;SDS011;72705;53.346;10.248;2024-02-15T10:15:28;23.05;;;11.18;;
82930;SDS011;72705;53.346;10.248;2024-02-15T10:18:04;25.92;;;11.75;;
82930;SDS011;72705;53.346;10.248;2024-02-15T10:20:34;25.13;;;12.23;;
82930;SDS011;72705;53.346;10.248;2024-02-15T10:25:31;32.22;;;14.60;;
82930;SDS011;72705;53.346;10.248;2024-02-15T10:30:41;24.58;;;13.07;;
82930;SDS011;72705;53.346;10.248;2024-02-15T10:33:17;32.17;;;14.05;;
82930;SDS011;72705;53.346;10.248;2024-02-15T10:36:06;28.58;;;14.52;;
82930;SDS011;72705;53.346;10.248;2024-02-15T10:38:33;33.78;;;14.38;;
82930;SDS011;72705;53.346;10.248;2024-02-15T10:41:05;29.67;;;14.75;;
82930;SDS011;72705;53.346;10.248;2024-02-15T10:43:33;28.23;;;13.75;;
82930;SDS011;72705;53.346;10.248;2024-02-15T10:45:59;33.90;;;15.30;;
82930;SDS011;72705;53.346;10.248;2024-02-15T10:48:29;37.30;;;15.43;;
82930;SDS011;72705;53.346;10.248;2024-02-15T10:51:05;33.60;;;15.25;;
82930;SDS011;72705;53.346;10.248;2024-02-15T10:53:35;33.17;;;16.17;;
82930;SDS011;72705;53.346;10.248;2024-02-15T10:56:15;33.40;;;15.85;;
82930;SDS011;72705;53.346;10.248;2024-02-15T10:58:51;31.10;;;16.52;;
82930;SDS011;72705;53.346;10.248;2024-02-15T11:01:25;35.10;;;16.23;;
82930;SDS011;72705;53.346;10.248;2024-02-15T11:04:03;36.95;;;16.52;;
82930;SDS011;72705;53.346;10.248;2024-02-15T11:06:33;39.60;;;18.35;;
82930;SDS011;72705;53.346;10.248;2024-02-15T11:09:04;33.17;;;16.42;;
82930;SDS011;72705;53.346;10.248;2024-02-15T11:11:31;33.03;;;16.35;;
82930;SDS011;72705;53.346;10.248;2024-02-15T11:16:50;28.85;;;15.02;;
82930;SDS011;72705;53.346;10.248;2024-02-15T11:22:00;28.98;;;16.17;;
82930;SDS011;72705;53.346;10.248;2024-02-15T11:24:31;37.35;;;16.67;;
82930;SDS011;72705;53.346;10.248;2024-02-15T11:27:00;35.08;;;16.38;;
82930;SDS011;72705;53.346;10.248;2024-02-15T11:37:54;35.47;;;16.85;;
82930;SDS011;72705;53.346;10.248;2024-02-15T11:40:24;36.78;;;16.35;;
82930;SDS011;72705;53.346;10.248;2024-02-15T11:42:59;33.65;;;15.15;;
82930;SDS011;72705;53.346;10.248;2024-02-15T11:45:25;30.50;;;15.98;;
82930;SDS011;72705;53.346;10.248;2024-02-15T11:47:52;31.38;;;16.13;;
82930;SDS011;72705;53.346;10.248;2024-02-15T11:50:19;33.75;;;16.95;;
82930;SDS011;72705;53.346;10.248;2024-02-15T11:52:46;30.83;;;17.15;;
82930;SDS011;72705;53.346;10.248;2024-02-15T11:55:19;30.00;;;17.13;;
82930;SDS011;72705;53.346;10.248;2024-02-15T11:57:58;31.42;;;16.17;;
82930;SDS011;72705;53.346;10.248;2024-02-15T12:00:42;33.08;;;16.17;;
82930;SDS011;72705;53.346;10.248;2024-02-15T12:03:33;34.95;;;16.02;;
82930;SDS011;72705;53.346;10.248;2024-02-15T12:06:17;39.22;;;17.90;;
82930;SDS011;72705;53.346;10.248;2024-02-15T12:09:02;35.83;;;18.05;;
82930;SDS011;72705;53.346;10.248;2024-02-15T12:11:46;34.78;;;15.60;;
82930;SDS011;72705;53.346;10.248;2024-02-15T12:14:30;32.55;;;16.30;;
82930;SDS011;72705;53.346;10.248;2024-02-15T12:17:14;34.33;;;16.25;;
82930;SDS011;72705;53.346;10.248;2024-02-15T12:20:03;31.60;;;16.13;;
82930;SDS011;72705;53.346;10.248;2024-02-15T12:22:43;33.42;;;15.25;;
82930;SDS011;72705;53.346;10.248;2024-02-15T12:25:16;33.65;;;16.40;;
82930;SDS011;72705;53.346;10.248;2024-02-15T12:27:42;31.38;;;15.20;;
82930;SDS011;72705;53.346;10.248;2024-02-15T12:30:15;27.33;;;14.65;;
82930;SDS011;72705;53.346;10.248;2024-02-15T12:32:50;29.90;;;14.85;;
82930;SDS011;72705;53.346;10.248;2024-02-15T12:35:20;30.33;;;14.63;;
82930;SDS011;72705;53.346;10.248;2024-02-15T12:37:49;28.90;;;14.65;;
82930;SDS011;72705;53.346;10.248;2024-02-15T12:40:31;29.10;;;13.77;;
82930;SDS011;72705;53.346;10.248;2024-02-15T12:42:58;25.38;;;13.23;;
82930;SDS011;72705;53.346;10.248;2024-02-15T12:45:25;25.35;;;12.82;;
82930;SDS011;72705;53.346;10.248;2024-02-15T12:47:55;22.20;;;12.55;;
82930;SDS011;72705;53.346;10.248;2024-02-15T12:50:21;25.85;;;11.82;;
82930;SDS011;72705;53.346;10.248;2024-02-15T12:52:49;26.77;;;13.68;;
82930;SDS011;72705;53.346;10.248;2024-02-15T12:55:18;21.67;;;11.05;;
82930;SDS011;72705;53.346;10.248;2024-02-15T13:00:21;21.88;;;10.50;;
82930;SDS011;72705;53.346;10.248;2024-02-15T13:02:53;21.73;;;10.60;;
82930;SDS011;72705;53.346;10.248;2024-02-15T13:05:18;21.85;;;10.18;;
82930;SDS011;72705;53.346;10.248;2024-02-15T13:07:48;17.75;;;9.70;;
82930;SDS011;72705;53.346;10.248;2024-02-15T13:10:15;16.58;;;10.25;;
82930;SDS011;72705;53.346;10.248;2024-02-15T13:12:41;19.30;;;9.75;;
82930;SDS011;72705;53.346;10.248;2024-02-15T13:15:09;20.08;;;10.63;;
82930;SDS011;72705;53.346;10.248;2024-02-15T13:17:39;16.42;;;9.13;;
82930;SDS011;72705;53.346;10.248;2024-02-15T13:20:13;17.70;;;8.60;;
82930;SDS011;72705;53.346;10.248;2024-02-15T13:22:41;16.08;;;8.05;;
82930;SDS011;72705;53.346;10.248;2024-02-15T13:25:08;13.35;;;8.25;;
82930;SDS011;72705;53.346;10.248;2024-02-15T13:27:35;17.85;;;6.97;;
82930;SDS011;72705;53.346;10.248;2024-02-15T13:30:03;11.77;;;7.45;;
82930;SDS011;72705;53.346;10.248;2024-02-15T13:32:33;13.30;;;7.40;;
82930;SDS011;72705;53.346;10.248;2024-02-15T13:34:58;12.40;;;6.85;;
82930;SDS011;72705;53.346;10.248;2024-02-15T13:37:32;10.68;;;6.88;;
82930;SDS011;72705;53.346;10.248;2024-02-15T13:39:57;11.75;;;6.40;;
82930;SDS011;72705;53.346;10.248;2024-02-15T13:42:22;9.50;;;6.23;;
82930;SDS011;72705;53.346;10.248;2024-02-15T13:44:48;14.83;;;7.20;;
82930;SDS011;72705;53.346;10.248;2024-02-15T13:47:13;13.87;;;6.60;;
82930;SDS011;72705;53.346;10.248;2024-02-15T13:49:39;10.40;;;6.25;;
82930;SDS011;72705;53.346;10.248;2024-02-15T13:52:05;8.93;;;5.75;;
82930;SDS011;72705;53.346;10.248;2024-02-15T13:54:31;10.43;;;5.93;;
82930;SDS011;72705;53.346;10.248;2024-02-15T13:56:56;12.50;;;6.78;;
82930;SDS011;72705;53.346;10.248;2024-02-15T13:59:22;8.90;;;6.60;;
82930;SDS011;72705;53.346;10.248;2024-02-15T14:01:48;10.63;;;6.90;;
82930;SDS011;72705;53.346;10.248;2024-02-15T14:04:14;12.55;;;6.38;;
82930;SDS011;72705;53.346;10.248;2024-02-15T14:06:41;12.00;;;7.50;;
82930;SDS011;72705;53.346;10.248;2024-02-15T14:09:09;12.23;;;7.05;;
82930;SDS011;72705;53.346;10.248;2024-02-15T14:11:36;11.27;;;6.90;;
82930;SDS011;72705;53.346;10.248;2024-02-15T14:14:02;10.35;;;6.40;;
82930;SDS011;72705;53.346;10.248;2024-02-15T14:16:28;14.52;;;6.65;;
82930;SDS011;72705;53.346;10.248;2024-02-15T14:18:54;10.77;;;6.35;;
82930;SDS011;72705;53.346;10.248;2024-02-15T14:21:20;8.52;;;6.20;;
82930;SDS011;72705;53.346;10.248;2024-02-15T14:23:45;11.80;;;7.75;;
82930;SDS011;72705;53.346;10.248;2024-02-15T14:26:11;10.63;;;6.43;;
82930;SDS011;72705;53.346;10.248;2024-02-15T14:28:36;11.52;;;6.45;;
82930;SDS011;72705;53.346;10.248;2024-02-15T14:31:04;10.35;;;6.85;;
82930;SDS011;72705;53.346;10.248;2024-02-15T14:33:48;11.65;;;6.88;;
82930;SDS011;72705;53.346;10.248;2024-02-15T14:36:15;12.40;;;6.47;;
82930;SDS011;72705;53.346;10.248;2024-02-15T14:38:42;9.57;;;6.75;;
82930;SDS011;72705;53.346;10.248;2024-02-15T14:41:07;10.57;;;7.50;;
82930;SDS011;72705;53.346;10.248;2024-02-15T14:43:35;10.50;;;7.10;;
82930;SDS011;72705;53.346;10.248;2024-02-15T14:46:01;11.45;;;7.50;;
82930;SDS011;72705;53.346;10.248;2024-02-15T14:48:29;11.05;;;6.50;;
82930;SDS011;72705;53.346;10.248;2024-02-15T14:50:56;9.93;;;6.90;;
82930;SDS011;72705;53.346;10.248;2024-02-15T14:53:22;11.77;;;7.95;;
82930;SDS011;72705;53.346;10.248;2024-02-15T14:55:48;12.32;;;7.25;;
82930;SDS011;72705;53.346;10.248;2024-02-15T14:58:15;9.60;;;6.97;;
82930;SDS011;72705;53.346;10.248;2024-02-15T15:00:44;9.63;;;7.03;;
82930;SDS011;72705;53.346;10.248;2024-02-15T15:03:18;10.68;;;6.97;;
82930;SDS011;72705;53.346;10.248;2024-02-15T15:05:45;10.45;;;7.85;;